sensor_id;sensor_type;location;lat;lon;timestamp;P1;durP1;ratioP1;P2;durP2;ratioP2
48014;SDS011;33780;51.034;7.120;2023-02-26T00:00:03;3.90;;;1.50;;
48014;SDS011;33780;51.034;7.120;2023-02-26T00:02:32;4.70;;;1.15;;
48014;SDS011;33780;51.034;7.120;2023-02-26T00:04:57;1.92;;;0.80;;
48014;SDS011;33780;51.034;7.120;2023-02-26T00:07:22;3.50;;;1.10;;
48014;SDS011;33780;51.034;7.120;2023-02-26T00:09:53;4.63;;;0.82;;
48014;SDS011;33780;51.034;7.120;2023-02-26T00:12:18;3.00;;;0.82;;
48014;SDS011;33780;51.034;7.120;2023-02-26T00:14:44;3.60;;;0.93;;
48014;SDS011;33780;51.034;7.120;2023-02-26T00:17:23;3.80;;;1.20;;
48014;SDS011;33780;51.034;7.120;2023-02-26T00:19:54;3.22;;;0.98;;
48014;SDS011;33780;51.034;7.120;2023-02-26T00:22:20;2.53;;;0.82;;
48014;SDS011;33780;51.034;7.120;2023-02-26T00:24:46;3.35;;;0.80;;
48014;SDS011;33780;51.034;7.120;2023-02-26T00:27:11;3.00;;;1.00;;
48014;SDS011;33780;51.034;7.120;2023-02-26T00:29:37;2.38;;;1.00;;
48014;SDS011;33780;51.034;7.120;2023-02-26T00:32:02;1.60;;;0.65;;
48014;SDS011;33780;51.034;7.120;2023-02-26T00:34:28;5.53;;;1.10;;
48014;SDS011;33780;51.034;7.120;2023-02-26T00:37:07;1.98;;;0.82;;
48014;SDS011;33780;51.034;7.120;2023-02-26T00:42:11;2.83;;;1.05;;
48014;SDS011;33780;51.034;7.120;2023-02-26T00:44:37;4.88;;;1.35;;
48014;SDS011;33780;51.034;7.120;2023-02-26T00:47:08;3.97;;;1.02;;
48014;SDS011;33780;51.034;7.120;2023-02-26T00:52:35;2.85;;;1.10;;
48014;SDS011;33780;51.034;7.120;2023-02-26T00:55:12;4.35;;;1.25;;
48014;SDS011;33780;51.034;7.120;2023-02-26T00:57:38;3.88;;;1.30;;
48014;SDS011;33780;51.034;7.120;2023-02-26T01:00:04;5.35;;;1.40;;
48014;SDS011;33780;51.034;7.120;2023-02-26T01:02:33;3.78;;;1.33;;
48014;SDS011;33780;51.034;7.120;2023-02-26T01:04:59;4.18;;;1.35;;
48014;SDS011;33780;51.034;7.120;2023-02-26T01:07:25;2.80;;;1.20;;
48014;SDS011;33780;51.034;7.120;2023-02-26T01:09:52;3.92;;;1.60;;
48014;SDS011;33780;51.034;7.120;2023-02-26T01:12:17;5.07;;;1.40;;
48014;SDS011;33780;51.034;7.120;2023-02-26T01:14:43;3.60;;;1.10;;
48014;SDS011;33780;51.034;7.120;2023-02-26T01:17:20;2.78;;;1.00;;
48014;SDS011;33780;51.034;7.120;2023-02-26T01:19:54;2.95;;;1.23;;
48014;SDS011;33780;51.034;7.120;2023-02-26T01:25:10;1.90;;;0.85;;
48014;SDS011;33780;51.034;7.120;2023-02-26T01:27:40;2.47;;;0.90;;
48014;SDS011;33780;51.034;7.120;2023-02-26T01:30:06;3.78;;;1.20;;
48014;SDS011;33780;51.034;7.120;2023-02-26T01:35:22;2.55;;;0.93;;
48014;SDS011;33780;51.034;7.120;2023-02-26T01:38:19;3.63;;;1.20;;
48014;SDS011;33780;51.034;7.120;2023-02-26T01:49:30;3.05;;;1.08;;
48014;SDS011;33780;51.034;7.120;2023-02-26T01:52:00;2.25;;;1.05;;
48014;SDS011;33780;51.034;7.120;2023-02-26T01:54:30;3.80;;;1.10;;
48014;SDS011;33780;51.034;7.120;2023-02-26T01:57:10;3.72;;;1.08;;
48014;SDS011;33780;51.034;7.120;2023-02-26T01:59:40;2.72;;;1.00;;
48014;SDS011;33780;51.034;7.120;2023-02-26T02:02:09;4.57;;;1.25;;
48014;SDS011;33780;51.034;7.120;2023-02-26T02:04:37;1.80;;;1.00;;
48014;SDS011;33780;51.034;7.120;2023-02-26T02:07:04;2.75;;;1.10;;
48014;SDS011;33780;51.034;7.120;2023-02-26T02:09:30;3.22;;;1.00;;
48014;SDS011;33780;51.034;7.120;2023-02-26T02:12:12;4.43;;;1.42;;
48014;SDS011;33780;51.034;7.120;2023-02-26T02:14:45;2.95;;;1.02;;
48014;SDS011;33780;51.034;7.120;2023-02-26T02:25:22;2.08;;;0.90;;
48014;SDS011;33780;51.034;7.120;2023-02-26T02:30:55;2.42;;;0.88;;
48014;SDS011;33780;51.034;7.120;2023-02-26T02:33:27;3.35;;;0.90;;
48014;SDS011;33780;51.034;7.120;2023-02-26T02:35:58;3.47;;;1.13;;
48014;SDS011;33780;51.034;7.120;2023-02-26T02:41:21;2.97;;;1.05;;
48014;SDS011;33780;51.034;7.120;2023-02-26T02:43:52;3.45;;;1.33;;
48014;SDS011;33780;51.034;7.120;2023-02-26T02:46:23;2.53;;;0.90;;
48014;SDS011;33780;51.034;7.120;2023-02-26T02:48:59;3.20;;;1.10;;
48014;SDS011;33780;51.034;7.120;2023-02-26T02:51:29;1.83;;;0.95;;
48014;SDS011;33780;51.034;7.120;2023-02-26T02:54:05;2.22;;;0.80;;
48014;SDS011;33780;51.034;7.120;2023-02-26T03:01:42;3.72;;;0.95;;
48014;SDS011;33780;51.034;7.120;2023-02-26T03:04:10;3.08;;;0.93;;
48014;SDS011;33780;51.034;7.120;2023-02-26T03:06:39;5.22;;;1.20;;
48014;SDS011;33780;51.034;7.120;2023-02-26T03:09:06;4.15;;;1.10;;
48014;SDS011;33780;51.034;7.120;2023-02-26T03:11:33;3.10;;;1.20;;
48014;SDS011;33780;51.034;7.120;2023-02-26T03:13:59;2.95;;;0.88;;
48014;SDS011;33780;51.034;7.120;2023-02-26T03:16:28;2.92;;;1.10;;
48014;SDS011;33780;51.034;7.120;2023-02-26T03:18:59;1.63;;;0.80;;
48014;SDS011;33780;51.034;7.120;2023-02-26T03:21:33;4.22;;;0.88;;
48014;SDS011;33780;51.034;7.120;2023-02-26T03:27:13;3.50;;;0.90;;
48014;SDS011;33780;51.034;7.120;2023-02-26T03:37:57;2.35;;;1.30;;
48014;SDS011;33780;51.034;7.120;2023-02-26T03:40:27;3.53;;;1.15;;
48014;SDS011;33780;51.034;7.120;2023-02-26T03:43:32;2.03;;;0.90;;
48014;SDS011;33780;51.034;7.120;2023-02-26T03:46:01;3.58;;;1.08;;
48014;SDS011;33780;51.034;7.120;2023-02-26T03:48:30;3.08;;;1.00;;
48014;SDS011;33780;51.034;7.120;2023-02-26T03:51:00;1.90;;;0.90;;
48014;SDS011;33780;51.034;7.120;2023-02-26T03:53:43;3.38;;;0.73;;
48014;SDS011;33780;51.034;7.120;2023-02-26T03:56:22;2.33;;;0.88;;
48014;SDS011;33780;51.034;7.120;2023-02-26T03:59:01;3.95;;;1.13;;
48014;SDS011;33780;51.034;7.120;2023-02-26T04:01:35;2.53;;;0.98;;
48014;SDS011;33780;51.034;7.120;2023-02-26T04:04:27;1.70;;;0.88;;
48014;SDS011;33780;51.034;7.120;2023-02-26T04:06:57;3.28;;;1.00;;
48014;SDS011;33780;51.034;7.120;2023-02-26T04:09:23;2.88;;;1.05;;
48014;SDS011;33780;51.034;7.120;2023-02-26T04:11:49;2.97;;;0.90;;
48014;SDS011;33780;51.034;7.120;2023-02-26T04:14:19;4.03;;;0.65;;
48014;SDS011;33780;51.034;7.120;2023-02-26T04:16:44;3.30;;;1.00;;
48014;SDS011;33780;51.034;7.120;2023-02-26T04:19:11;1.38;;;0.70;;
48014;SDS011;33780;51.034;7.120;2023-02-26T04:21:36;1.48;;;0.55;;
48014;SDS011;33780;51.034;7.120;2023-02-26T04:24:02;2.85;;;0.90;;
48014;SDS011;33780;51.034;7.120;2023-02-26T04:26:27;2.95;;;0.98;;
48014;SDS011;33780;51.034;7.120;2023-02-26T04:28:53;3.92;;;1.00;;
48014;SDS011;33780;51.034;7.120;2023-02-26T04:31:21;2.33;;;0.82;;
48014;SDS011;33780;51.034;7.120;2023-02-26T04:33:46;3.08;;;0.77;;
48014;SDS011;33780;51.034;7.120;2023-02-26T04:36:12;1.67;;;0.77;;
48014;SDS011;33780;51.034;7.120;2023-02-26T04:38:37;7.88;;;1.10;;
48014;SDS011;33780;51.034;7.120;2023-02-26T04:41:03;3.33;;;1.00;;
48014;SDS011;33780;51.034;7.120;2023-02-26T04:43:29;1.85;;;0.80;;
48014;SDS011;33780;51.034;7.120;2023-02-26T04:45:54;1.88;;;0.82;;
48014;SDS011;33780;51.034;7.120;2023-02-26T04:48:19;2.83;;;1.08;;
48014;SDS011;33780;51.034;7.120;2023-02-26T04:50:45;2.03;;;0.90;;
48014;SDS011;33780;51.034;7.120;2023-02-26T04:53:10;2.10;;;0.90;;
48014;SDS011;33780;51.034;7.120;2023-02-26T04:55:36;1.65;;;0.70;;
48014;SDS011;33780;51.034;7.120;2023-02-26T04:58:04;2.20;;;0.90;;
48014;SDS011;33780;51.034;7.120;2023-02-26T05:00:30;1.60;;;0.80;;
48014;SDS011;33780;51.034;7.120;2023-02-26T05:02:55;3.45;;;0.77;;
48014;SDS011;33780;51.034;7.120;2023-02-26T05:05:20;1.90;;;0.68;;
48014;SDS011;33780;51.034;7.120;2023-02-26T05:07:46;1.63;;;0.60;;
48014;SDS011;33780;51.034;7.120;2023-02-26T05:10:11;2.00;;;0.80;;
48014;SDS011;33780;51.034;7.120;2023-02-26T05:12:37;1.33;;;0.50;;
48014;SDS011;33780;51.034;7.120;2023-02-26T05:15:02;2.67;;;0.85;;
48014;SDS011;33780;51.034;7.120;2023-02-26T05:17:29;4.10;;;1.10;;
48014;SDS011;33780;51.034;7.120;2023-02-26T05:19:54;3.95;;;1.02;;
48014;SDS011;33780;51.034;7.120;2023-02-26T05:22:19;3.05;;;0.75;;
48014;SDS011;33780;51.034;7.120;2023-02-26T05:24:45;2.28;;;0.90;;
48014;SDS011;33780;51.034;7.120;2023-02-26T05:27:10;3.08;;;0.80;;
48014;SDS011;33780;51.034;7.120;2023-02-26T05:29:36;1.60;;;0.77;;
48014;SDS011;33780;51.034;7.120;2023-02-26T05:32:08;2.33;;;1.02;;
48014;SDS011;33780;51.034;7.120;2023-02-26T05:34:34;1.67;;;0.65;;
48014;SDS011;33780;51.034;7.120;2023-02-26T05:36:59;2.33;;;0.82;;
48014;SDS011;33780;51.034;7.120;2023-02-26T05:39:25;4.35;;;0.90;;
48014;SDS011;33780;51.034;7.120;2023-02-26T05:41:50;1.60;;;0.75;;
48014;SDS011;33780;51.034;7.120;2023-02-26T05:44:17;1.92;;;0.82;;
48014;SDS011;33780;51.034;7.120;2023-02-26T05:46:42;2.85;;;0.80;;
48014;SDS011;33780;51.034;7.120;2023-02-26T05:49:08;2.50;;;0.75;;
48014;SDS011;33780;51.034;7.120;2023-02-26T05:51:33;2.40;;;0.77;;
48014;SDS011;33780;51.034;7.120;2023-02-26T05:53:58;2.85;;;1.17;;
48014;SDS011;33780;51.034;7.120;2023-02-26T05:56:24;8.60;;;1.90;;
48014;SDS011;33780;51.034;7.120;2023-02-26T05:58:49;3.53;;;1.65;;
48014;SDS011;33780;51.034;7.120;2023-02-26T06:01:14;3.95;;;1.40;;
48014;SDS011;33780;51.034;7.120;2023-02-26T06:03:45;2.90;;;1.05;;
48014;SDS011;33780;51.034;7.120;2023-02-26T06:06:11;3.13;;;1.30;;
48014;SDS011;33780;51.034;7.120;2023-02-26T06:08:38;2.75;;;1.13;;
48014;SDS011;33780;51.034;7.120;2023-02-26T06:11:04;1.77;;;0.80;;
48014;SDS011;33780;51.034;7.120;2023-02-26T06:13:29;4.38;;;1.05;;
48014;SDS011;33780;51.034;7.120;2023-02-26T06:15:55;2.60;;;1.00;;
48014;SDS011;33780;51.034;7.120;2023-02-26T06:18:21;3.17;;;0.80;;
48014;SDS011;33780;51.034;7.120;2023-02-26T06:20:55;1.70;;;0.60;;
48014;SDS011;33780;51.034;7.120;2023-02-26T06:23:25;4.68;;;1.02;;
48014;SDS011;33780;51.034;7.120;2023-02-26T06:25:53;2.80;;;0.85;;
48014;SDS011;33780;51.034;7.120;2023-02-26T06:28:18;2.28;;;0.77;;
48014;SDS011;33780;51.034;7.120;2023-02-26T06:30:44;1.67;;;0.75;;
48014;SDS011;33780;51.034;7.120;2023-02-26T06:33:10;3.30;;;1.25;;
48014;SDS011;33780;51.034;7.120;2023-02-26T06:35:39;2.65;;;0.88;;
48014;SDS011;33780;51.034;7.120;2023-02-26T06:38:06;7.35;;;2.00;;
48014;SDS011;33780;51.034;7.120;2023-02-26T06:40:32;3.67;;;1.50;;
48014;SDS011;33780;51.034;7.120;2023-02-26T06:42:57;2.28;;;1.08;;
48014;SDS011;33780;51.034;7.120;2023-02-26T06:45:23;2.47;;;0.85;;
48014;SDS011;33780;51.034;7.120;2023-02-26T06:47:49;2.55;;;0.80;;
48014;SDS011;33780;51.034;7.120;2023-02-26T06:50:15;2.08;;;0.90;;
48014;SDS011;33780;51.034;7.120;2023-02-26T06:52:46;2.90;;;0.70;;
48014;SDS011;33780;51.034;7.120;2023-02-26T06:55:12;10.23;;;0.90;;
48014;SDS011;33780;51.034;7.120;2023-02-26T06:57:40;1.63;;;0.90;;
48014;SDS011;33780;51.034;7.120;2023-02-26T07:00:06;3.47;;;0.98;;
48014;SDS011;33780;51.034;7.120;2023-02-26T07:02:38;2.45;;;0.90;;
48014;SDS011;33780;51.034;7.120;2023-02-26T07:05:03;3.08;;;1.05;;
48014;SDS011;33780;51.034;7.120;2023-02-26T07:07:29;4.85;;;1.20;;
48014;SDS011;33780;51.034;7.120;2023-02-26T07:09:55;1.85;;;0.90;;
48014;SDS011;33780;51.034;7.120;2023-02-26T07:12:20;2.25;;;0.98;;
48014;SDS011;33780;51.034;7.120;2023-02-26T07:14:48;2.92;;;1.17;;
48014;SDS011;33780;51.034;7.120;2023-02-26T07:17:13;3.28;;;1.20;;
48014;SDS011;33780;51.034;7.120;2023-02-26T07:19:51;3.25;;;1.27;;
48014;SDS011;33780;51.034;7.120;2023-02-26T07:22:17;3.35;;;1.30;;
48014;SDS011;33780;51.034;7.120;2023-02-26T07:24:47;2.22;;;1.05;;
48014;SDS011;33780;51.034;7.120;2023-02-26T07:27:13;3.35;;;1.23;;
48014;SDS011;33780;51.034;7.120;2023-02-26T07:29:39;2.08;;;1.17;;
48014;SDS011;33780;51.034;7.120;2023-02-26T07:32:04;3.05;;;1.10;;
48014;SDS011;33780;51.034;7.120;2023-02-26T07:34:30;2.67;;;1.08;;
48014;SDS011;33780;51.034;7.120;2023-02-26T07:36:56;4.60;;;1.20;;
48014;SDS011;33780;51.034;7.120;2023-02-26T07:39:23;3.97;;;1.13;;
48014;SDS011;33780;51.034;7.120;2023-02-26T07:41:48;3.08;;;1.00;;
48014;SDS011;33780;51.034;7.120;2023-02-26T07:44:14;2.75;;;0.85;;
48014;SDS011;33780;51.034;7.120;2023-02-26T07:46:39;2.78;;;1.30;;
48014;SDS011;33780;51.034;7.120;2023-02-26T07:49:13;2.10;;;1.10;;
48014;SDS011;33780;51.034;7.120;2023-02-26T07:51:39;2.47;;;1.15;;
48014;SDS011;33780;51.034;7.120;2023-02-26T07:54:04;4.30;;;1.35;;
48014;SDS011;33780;51.034;7.120;2023-02-26T07:56:30;3.35;;;1.20;;
48014;SDS011;33780;51.034;7.120;2023-02-26T07:58:55;2.70;;;0.98;;
48014;SDS011;33780;51.034;7.120;2023-02-26T08:01:24;3.08;;;1.30;;
48014;SDS011;33780;51.034;7.120;2023-02-26T08:03:49;2.40;;;1.40;;
48014;SDS011;33780;51.034;7.120;2023-02-26T08:06:14;2.28;;;1.05;;
48014;SDS011;33780;51.034;7.120;2023-02-26T08:08:40;4.18;;;1.35;;
48014;SDS011;33780;51.034;7.120;2023-02-26T08:11:05;3.45;;;1.30;;
48014;SDS011;33780;51.034;7.120;2023-02-26T08:13:30;2.78;;;1.33;;
48014;SDS011;33780;51.034;7.120;2023-02-26T08:16:03;2.20;;;1.13;;
48014;SDS011;33780;51.034;7.120;2023-02-26T08:18:28;3.08;;;1.10;;
48014;SDS011;33780;51.034;7.120;2023-02-26T08:20:54;4.07;;;1.27;;
48014;SDS011;33780;51.034;7.120;2023-02-26T08:23:19;2.70;;;1.27;;
48014;SDS011;33780;51.034;7.120;2023-02-26T08:25:45;3.60;;;1.08;;
48014;SDS011;33780;51.034;7.120;2023-02-26T08:28:11;2.22;;;1.27;;
48014;SDS011;33780;51.034;7.120;2023-02-26T08:30:37;3.53;;;1.33;;
48014;SDS011;33780;51.034;7.120;2023-02-26T08:33:03;4.75;;;1.00;;
48014;SDS011;33780;51.034;7.120;2023-02-26T08:35:28;4.50;;;1.40;;
48014;SDS011;33780;51.034;7.120;2023-02-26T08:37:57;1.98;;;0.80;;
48014;SDS011;33780;51.034;7.120;2023-02-26T08:40:22;2.55;;;1.10;;
48014;SDS011;33780;51.034;7.120;2023-02-26T08:42:48;2.05;;;0.93;;
48014;SDS011;33780;51.034;7.120;2023-02-26T08:45:13;2.05;;;0.80;;
48014;SDS011;33780;51.034;7.120;2023-02-26T08:47:39;5.25;;;1.20;;
48014;SDS011;33780;51.034;7.120;2023-02-26T08:50:08;3.75;;;0.95;;
48014;SDS011;33780;51.034;7.120;2023-02-26T08:52:35;2.67;;;0.88;;
48014;SDS011;33780;51.034;7.120;2023-02-26T08:55:00;2.22;;;0.80;;
48014;SDS011;33780;51.034;7.120;2023-02-26T08:57:25;0.98;;;0.50;;
48014;SDS011;33780;51.034;7.120;2023-02-26T08:59:51;7.43;;;1.10;;
48014;SDS011;33780;51.034;7.120;2023-02-26T09:02:16;2.55;;;0.88;;
48014;SDS011;33780;51.034;7.120;2023-02-26T09:04:41;1.25;;;0.50;;
48014;SDS011;33780;51.034;7.120;2023-02-26T09:07:06;3.60;;;0.90;;
48014;SDS011;33780;51.034;7.120;2023-02-26T09:09:32;3.50;;;0.77;;
48014;SDS011;33780;51.034;7.120;2023-02-26T09:11:57;1.20;;;0.50;;
48014;SDS011;33780;51.034;7.120;2023-02-26T09:14:23;1.30;;;0.50;;
48014;SDS011;33780;51.034;7.120;2023-02-26T09:16:48;2.45;;;0.65;;
48014;SDS011;33780;51.034;7.120;2023-02-26T09:19:13;2.40;;;0.60;;
48014;SDS011;33780;51.034;7.120;2023-02-26T09:21:39;2.08;;;0.77;;
48014;SDS011;33780;51.034;7.120;2023-02-26T09:24:04;5.18;;;0.85;;
48014;SDS011;33780;51.034;7.120;2023-02-26T09:26:30;2.15;;;0.60;;
48014;SDS011;33780;51.034;7.120;2023-02-26T09:28:55;3.15;;;0.70;;
48014;SDS011;33780;51.034;7.120;2023-02-26T09:31:20;1.00;;;0.50;;
48014;SDS011;33780;51.034;7.120;2023-02-26T09:33:46;0.85;;;0.30;;
48014;SDS011;33780;51.034;7.120;2023-02-26T09:36:11;3.83;;;0.73;;
48014;SDS011;33780;51.034;7.120;2023-02-26T09:38:36;2.83;;;0.65;;
48014;SDS011;33780;51.034;7.120;2023-02-26T09:43:34;1.70;;;0.60;;
48014;SDS011;33780;51.034;7.120;2023-02-26T09:49:06;6.57;;;0.82;;
48014;SDS011;33780;51.034;7.120;2023-02-26T09:54:46;1.23;;;0.40;;
48014;SDS011;33780;51.034;7.120;2023-02-26T09:57:29;1.70;;;0.70;;
48014;SDS011;33780;51.034;7.120;2023-02-26T09:59:57;0.90;;;0.50;;
48014;SDS011;33780;51.034;7.120;2023-02-26T10:02:36;4.75;;;0.57;;
48014;SDS011;33780;51.034;7.120;2023-02-26T10:07:45;1.25;;;0.60;;
48014;SDS011;33780;51.034;7.120;2023-02-26T10:10:31;1.92;;;0.35;;
48014;SDS011;33780;51.034;7.120;2023-02-26T10:15:52;1.52;;;0.60;;
48014;SDS011;33780;51.034;7.120;2023-02-26T10:18:26;1.35;;;0.50;;
48014;SDS011;33780;51.034;7.120;2023-02-26T10:21:00;0.82;;;0.40;;
48014;SDS011;33780;51.034;7.120;2023-02-26T10:26:13;1.42;;;0.60;;
48014;SDS011;33780;51.034;7.120;2023-02-26T10:31:23;2.33;;;0.47;;
48014;SDS011;33780;51.034;7.120;2023-02-26T10:39:30;1.73;;;0.52;;
48014;SDS011;33780;51.034;7.120;2023-02-26T10:44:29;2.30;;;0.57;;
48014;SDS011;33780;51.034;7.120;2023-02-26T10:47:10;1.17;;;0.63;;
48014;SDS011;33780;51.034;7.120;2023-02-26T10:52:16;1.65;;;0.40;;
48014;SDS011;33780;51.034;7.120;2023-02-26T10:58:00;1.00;;;0.40;;
48014;SDS011;33780;51.034;7.120;2023-02-26T11:00:29;1.67;;;0.30;;
48014;SDS011;33780;51.034;7.120;2023-02-26T11:02:55;0.68;;;0.20;;
48014;SDS011;33780;51.034;7.120;2023-02-26T11:05:26;1.83;;;0.20;;
48014;SDS011;33780;51.034;7.120;2023-02-26T11:07:56;1.10;;;0.40;;
48014;SDS011;33780;51.034;7.120;2023-02-26T11:10:27;0.63;;;0.28;;
48014;SDS011;33780;51.034;7.120;2023-02-26T11:13:02;1.20;;;0.50;;
48014;SDS011;33780;51.034;7.120;2023-02-26T11:15:30;1.35;;;0.30;;
48014;SDS011;33780;51.034;7.120;2023-02-26T11:17:56;2.75;;;0.40;;
48014;SDS011;33780;51.034;7.120;2023-02-26T11:22:58;3.38;;;0.30;;
48014;SDS011;33780;51.034;7.120;2023-02-26T11:25:27;1.30;;;0.40;;
48014;SDS011;33780;51.034;7.120;2023-02-26T11:27:58;0.73;;;0.35;;
48014;SDS011;33780;51.034;7.120;2023-02-26T11:30:26;1.77;;;0.40;;
48014;SDS011;33780;51.034;7.120;2023-02-26T11:32:56;0.80;;;0.30;;
48014;SDS011;33780;51.034;7.120;2023-02-26T11:35:23;0.88;;;0.40;;
48014;SDS011;33780;51.034;7.120;2023-02-26T11:37:58;1.75;;;0.60;;
48014;SDS011;33780;51.034;7.120;2023-02-26T11:40:37;0.75;;;0.30;;
48014;SDS011;33780;51.034;7.120;2023-02-26T11:43:14;2.83;;;0.55;;
48014;SDS011;33780;51.034;7.120;2023-02-26T11:45:43;1.00;;;0.32;;
48014;SDS011;33780;51.034;7.120;2023-02-26T11:48:17;4.63;;;0.40;;
48014;SDS011;33780;51.034;7.120;2023-02-26T11:50:47;1.50;;;0.45;;
48014;SDS011;33780;51.034;7.120;2023-02-26T11:53:23;0.45;;;0.20;;
48014;SDS011;33780;51.034;7.120;2023-02-26T11:55:52;0.95;;;0.28;;
48014;SDS011;33780;51.034;7.120;2023-02-26T11:58:23;0.98;;;0.30;;
48014;SDS011;33780;51.034;7.120;2023-02-26T12:00:52;1.35;;;0.30;;
48014;SDS011;33780;51.034;7.120;2023-02-26T12:03:22;0.68;;;0.32;;
48014;SDS011;33780;51.034;7.120;2023-02-26T12:05:53;0.70;;;0.30;;
48014;SDS011;33780;51.034;7.120;2023-02-26T12:08:25;1.67;;;0.45;;
48014;SDS011;33780;51.034;7.120;2023-02-26T12:10:59;1.67;;;0.50;;
48014;SDS011;33780;51.034;7.120;2023-02-26T12:39:23;1.17;;;0.32;;
48014;SDS011;33780;51.034;7.120;2023-02-26T12:44:54;1.45;;;0.40;;
48014;SDS011;33780;51.034;7.120;2023-02-26T12:59:10;0.98;;;0.40;;
48014;SDS011;33780;51.034;7.120;2023-02-26T13:10:28;2.42;;;0.47;;
48014;SDS011;33780;51.034;7.120;2023-02-26T13:16:24;3.30;;;0.52;;
48014;SDS011;33780;51.034;7.120;2023-02-26T13:19:04;1.27;;;0.45;;
48014;SDS011;33780;51.034;7.120;2023-02-26T13:21:42;0.85;;;0.38;;
48014;SDS011;33780;51.034;7.120;2023-02-26T13:26:37;1.10;;;0.43;;
48014;SDS011;33780;51.034;7.120;2023-02-26T13:29:15;0.75;;;0.40;;
48014;SDS011;33780;51.034;7.120;2023-02-26T13:32:08;1.20;;;0.50;;
48014;SDS011;33780;51.034;7.120;2023-02-26T13:34:47;1.50;;;0.45;;
48014;SDS011;33780;51.034;7.120;2023-02-26T13:37:20;2.10;;;0.50;;
48014;SDS011;33780;51.034;7.120;2023-02-26T13:40:00;0.60;;;0.30;;
48014;SDS011;33780;51.034;7.120;2023-02-26T13:42:58;1.40;;;0.43;;
48014;SDS011;33780;51.034;7.120;2023-02-26T13:45:41;2.80;;;0.40;;
48014;SDS011;33780;51.034;7.120;2023-02-26T13:48:12;0.70;;;0.38;;
48014;SDS011;33780;51.034;7.120;2023-02-26T13:56:12;0.70;;;0.30;;
48014;SDS011;33780;51.034;7.120;2023-02-26T13:58:41;1.50;;;0.30;;
48014;SDS011;33780;51.034;7.120;2023-02-26T14:01:16;0.60;;;0.30;;
48014;SDS011;33780;51.034;7.120;2023-02-26T14:06:58;0.40;;;0.22;;
48014;SDS011;33780;51.034;7.120;2023-02-26T14:10:15;1.20;;;0.30;;
48014;SDS011;33780;51.034;7.120;2023-02-26T14:17:46;1.00;;;0.43;;
48014;SDS011;33780;51.034;7.120;2023-02-26T14:20:28;0.77;;;0.43;;
48014;SDS011;33780;51.034;7.120;2023-02-26T14:23:09;1.33;;;0.40;;
48014;SDS011;33780;51.034;7.120;2023-02-26T14:25:44;0.88;;;0.40;;
48014;SDS011;33780;51.034;7.120;2023-02-26T14:28:28;0.47;;;0.28;;
48014;SDS011;33780;51.034;7.120;2023-02-26T14:33:46;0.57;;;0.30;;
48014;SDS011;33780;51.034;7.120;2023-02-26T14:36:34;0.63;;;0.22;;
48014;SDS011;33780;51.034;7.120;2023-02-26T14:41:37;0.65;;;0.28;;
48014;SDS011;33780;51.034;7.120;2023-02-26T14:44:10;0.85;;;0.40;;
48014;SDS011;33780;51.034;7.120;2023-02-26T14:46:40;0.52;;;0.30;;
48014;SDS011;33780;51.034;7.120;2023-02-26T14:49:07;2.20;;;0.30;;
48014;SDS011;33780;51.034;7.120;2023-02-26T14:51:45;1.42;;;0.47;;
48014;SDS011;33780;51.034;7.120;2023-02-26T14:59:57;1.13;;;0.30;;
48014;SDS011;33780;51.034;7.120;2023-02-26T15:13:38;1.58;;;0.50;;
48014;SDS011;33780;51.034;7.120;2023-02-26T15:19:09;0.63;;;0.30;;
48014;SDS011;33780;51.034;7.120;2023-02-26T15:22:04;0.85;;;0.32;;
48014;SDS011;33780;51.034;7.120;2023-02-26T15:24:45;0.32;;;0.20;;
48014;SDS011;33780;51.034;7.120;2023-02-26T15:27:15;0.43;;;0.20;;
48014;SDS011;33780;51.034;7.120;2023-02-26T15:29:45;0.65;;;0.30;;
48014;SDS011;33780;51.034;7.120;2023-02-26T15:32:29;0.52;;;0.28;;
48014;SDS011;33780;51.034;7.120;2023-02-26T15:35:05;1.95;;;0.30;;
48014;SDS011;33780;51.034;7.120;2023-02-26T15:37:39;0.73;;;0.30;;
48014;SDS011;33780;51.034;7.120;2023-02-26T15:40:06;0.75;;;0.30;;
48014;SDS011;33780;51.034;7.120;2023-02-26T15:42:39;0.55;;;0.28;;
48014;SDS011;33780;51.034;7.120;2023-02-26T15:45:13;1.15;;;0.40;;
48014;SDS011;33780;51.034;7.120;2023-02-26T15:47:46;1.30;;;0.20;;
48014;SDS011;33780;51.034;7.120;2023-02-26T15:50:18;1.27;;;0.20;;
48014;SDS011;33780;51.034;7.120;2023-02-26T15:52:50;1.23;;;0.30;;
48014;SDS011;33780;51.034;7.120;2023-02-26T15:55:22;1.13;;;0.40;;
48014;SDS011;33780;51.034;7.120;2023-02-26T15:57:51;0.93;;;0.38;;
48014;SDS011;33780;51.034;7.120;2023-02-26T16:00:21;2.50;;;0.30;;
48014;SDS011;33780;51.034;7.120;2023-02-26T16:02:51;1.75;;;0.40;;
48014;SDS011;33780;51.034;7.120;2023-02-26T16:05:33;0.88;;;0.38;;
48014;SDS011;33780;51.034;7.120;2023-02-26T16:08:03;0.77;;;0.30;;
48014;SDS011;33780;51.034;7.120;2023-02-26T16:10:33;0.70;;;0.40;;
48014;SDS011;33780;51.034;7.120;2023-02-26T16:13:09;0.93;;;0.35;;
48014;SDS011;33780;51.034;7.120;2023-02-26T16:15:46;1.25;;;0.40;;
48014;SDS011;33780;51.034;7.120;2023-02-26T16:18:16;0.68;;;0.30;;
48014;SDS011;33780;51.034;7.120;2023-02-26T16:20:49;1.02;;;0.30;;
48014;SDS011;33780;51.034;7.120;2023-02-26T16:23:24;1.15;;;0.47;;
48014;SDS011;33780;51.034;7.120;2023-02-26T16:25:59;0.60;;;0.25;;
48014;SDS011;33780;51.034;7.120;2023-02-26T16:28:28;1.23;;;0.45;;
48014;SDS011;33780;51.034;7.120;2023-02-26T16:30:59;1.00;;;0.38;;
48014;SDS011;33780;51.034;7.120;2023-02-26T16:33:30;0.73;;;0.35;;
48014;SDS011;33780;51.034;7.120;2023-02-26T16:36:13;0.82;;;0.43;;
48014;SDS011;33780;51.034;7.120;2023-02-26T16:38:48;0.95;;;0.35;;
48014;SDS011;33780;51.034;7.120;2023-02-26T16:41:24;0.57;;;0.30;;
48014;SDS011;33780;51.034;7.120;2023-02-26T16:43:55;0.90;;;0.35;;
48014;SDS011;33780;51.034;7.120;2023-02-26T16:46:27;0.63;;;0.30;;
48014;SDS011;33780;51.034;7.120;2023-02-26T16:51:53;0.82;;;0.40;;
48014;SDS011;33780;51.034;7.120;2023-02-26T16:54:31;2.60;;;0.32;;
48014;SDS011;33780;51.034;7.120;2023-02-26T16:57:05;1.25;;;0.50;;
48014;SDS011;33780;51.034;7.120;2023-02-26T16:59:34;1.02;;;0.50;;
48014;SDS011;33780;51.034;7.120;2023-02-26T17:02:03;2.88;;;0.50;;
48014;SDS011;33780;51.034;7.120;2023-02-26T17:04:39;0.88;;;0.40;;
48014;SDS011;33780;51.034;7.120;2023-02-26T17:07:16;0.90;;;0.30;;
48014;SDS011;33780;51.034;7.120;2023-02-26T17:09:48;3.45;;;0.43;;
48014;SDS011;33780;51.034;7.120;2023-02-26T17:12:16;1.38;;;0.55;;
48014;SDS011;33780;51.034;7.120;2023-02-26T17:15:02;1.02;;;0.43;;
48014;SDS011;33780;51.034;7.120;2023-02-26T17:17:38;1.25;;;0.43;;
48014;SDS011;33780;51.034;7.120;2023-02-26T17:20:10;0.90;;;0.40;;
48014;SDS011;33780;51.034;7.120;2023-02-26T17:22:36;0.95;;;0.50;;
48014;SDS011;33780;51.034;7.120;2023-02-26T17:25:02;1.98;;;0.40;;
48014;SDS011;33780;51.034;7.120;2023-02-26T17:27:30;0.82;;;0.40;;
48014;SDS011;33780;51.034;7.120;2023-02-26T17:30:00;0.75;;;0.43;;
48014;SDS011;33780;51.034;7.120;2023-02-26T17:32:29;1.30;;;0.52;;
48014;SDS011;33780;51.034;7.120;2023-02-26T17:34:56;0.73;;;0.40;;
48014;SDS011;33780;51.034;7.120;2023-02-26T17:37:30;0.63;;;0.35;;
48014;SDS011;33780;51.034;7.120;2023-02-26T17:43:03;2.47;;;0.47;;
48014;SDS011;33780;51.034;7.120;2023-02-26T17:45:33;0.93;;;0.47;;
48014;SDS011;33780;51.034;7.120;2023-02-26T17:47:59;1.83;;;0.50;;
48014;SDS011;33780;51.034;7.120;2023-02-26T17:53:24;0.75;;;0.40;;
48014;SDS011;33780;51.034;7.120;2023-02-26T17:55:58;1.42;;;0.50;;
48014;SDS011;33780;51.034;7.120;2023-02-26T17:58:26;0.88;;;0.30;;
48014;SDS011;33780;51.034;7.120;2023-02-26T18:00:53;1.58;;;0.40;;
48014;SDS011;33780;51.034;7.120;2023-02-26T18:03:19;1.25;;;0.40;;
48014;SDS011;33780;51.034;7.120;2023-02-26T18:05:45;2.00;;;0.32;;
48014;SDS011;33780;51.034;7.120;2023-02-26T18:10:48;0.73;;;0.30;;
48014;SDS011;33780;51.034;7.120;2023-02-26T18:13:14;0.57;;;0.22;;
48014;SDS011;33780;51.034;7.120;2023-02-26T18:15:40;0.68;;;0.38;;